createdAt,value
2018-11-28T00:00:44.908Z,93.35
2018-11-28T00:03:33.679Z,92.47
2018-11-28T00:06:22.463Z,92.16
2018-11-28T00:09:11.233Z,92.79
2018-11-28T00:12:00.377Z,93.39
2018-11-28T00:14:49.134Z,92.84
2018-11-28T00:17:38.041Z,93.59
2018-11-28T00:20:26.861Z,92.91
2018-11-28T00:23:15.925Z,93.17
2018-11-28T00:26:04.713Z,92.84
2018-11-28T00:28:53.494Z,93.15
2018-11-28T00:31:42.277Z,92.78
2018-11-28T00:34:31.031Z,93.67
2018-11-28T00:37:19.822Z,93.14
2018-11-28T00:40:10.004Z,92.74
2018-11-28T00:42:58.815Z,92.41
2018-11-28T00:45:47.904Z,92.46
2018-11-28T00:48:36.683Z,93.00
2018-11-28T00:51:25.463Z,92.97
2018-11-28T00:54:14.238Z,92.67
2018-11-28T00:57:03.000Z,92.54
2018-11-28T00:59:51.798Z,92.86
2018-11-28T01:02:40.594Z,93.35
2018-11-28T01:05:29.363Z,93.83
2018-11-28T01:08:18.764Z,94.02
2018-11-28T01:11:07.640Z,95.01
2018-11-28T01:13:56.409Z,95.19
2018-11-28T01:16:45.467Z,95.22
2018-11-28T01:19:34.254Z,95.15
2018-11-28T01:22:23.052Z,94.31
2018-11-28T01:25:31.223Z,94.85
2018-11-28T01:28:20.001Z,94.21
2018-11-28T01:31:08.819Z,94.38
2018-11-28T01:33:57.549Z,94.14
2018-11-28T01:36:46.621Z,94.44
2018-11-28T01:39:35.385Z,94.73
2018-11-28T01:42:24.183Z,94.52
2018-11-28T01:45:14.031Z,94.80
2018-11-28T01:48:02.860Z,94.58
2018-11-28T01:50:51.619Z,94.76
2018-11-28T01:53:40.403Z,94.44
2018-11-28T01:56:29.171Z,94.49
2018-11-28T01:59:18.231Z,93.95
2018-11-28T02:02:09.688Z,93.96
2018-11-28T02:04:58.478Z,94.24
2018-11-28T02:07:47.242Z,94.51
2018-11-28T02:10:36.031Z,94.74
2018-11-28T02:13:25.059Z,94.75
2018-11-28T02:16:13.833Z,94.93
2018-11-28T02:19:02.577Z,94.70
2018-11-28T02:21:51.358Z,95.08
2018-11-28T02:24:40.131Z,94.75
2018-11-28T02:27:28.916Z,94.50
2018-11-28T02:30:21.574Z,94.74
2018-11-28T02:33:10.347Z,95.18
2018-11-28T02:35:59.123Z,95.63
2018-11-28T02:38:48.204Z,96.49
2018-11-28T02:41:36.984Z,96.43
2018-11-28T02:44:26.028Z,96.88
2018-11-28T02:47:14.808Z,97.28
2018-11-28T02:50:03.568Z,97.42
2018-11-28T02:52:52.357Z,97.42
2018-11-28T02:55:41.194Z,97.45
2018-11-28T02:58:29.978Z,97.50
2018-11-28T03:01:18.750Z,97.61
2018-11-28T03:04:07.533Z,97.36
2018-11-28T03:06:56.294Z,98.24
2018-11-28T03:09:45.350Z,98.37
2018-11-28T03:12:34.116Z,98.44
2018-11-28T03:15:33.800Z,98.20
2018-11-28T03:18:23.282Z,98.84
2018-11-28T03:21:12.058Z,98.91
2018-11-28T03:24:00.830Z,99.38
2018-11-28T03:26:49.602Z,99.51
2018-11-28T03:29:38.397Z,99.70
2018-11-28T03:32:27.175Z,99.82
2018-11-28T03:35:16.439Z,100.00
2018-11-28T03:38:05.311Z,100.00
2018-11-28T03:40:54.378Z,100.00
2018-11-28T03:43:43.170Z,99.94
2018-11-28T03:46:32.220Z,99.67
2018-11-28T03:49:21.167Z,99.84
2018-11-28T03:52:10.145Z,100.00
2018-11-28T03:54:59.127Z,100.00
2018-11-28T03:57:49.042Z,99.72
2018-11-28T04:00:38.207Z,99.66
2018-11-28T04:03:26.977Z,99.84
2018-11-28T04:06:15.745Z,99.53
2018-11-28T04:08:45.172Z,99.34
2018-11-28T04:11:33.955Z,99.67
2018-11-28T04:14:22.718Z,99.88
2018-11-28T04:17:11.504Z,99.74
2018-11-28T04:20:00.260Z,99.98
2018-11-28T04:22:49.054Z,100.00
2018-11-28T04:25:37.821Z,100.00
2018-11-28T04:28:26.613Z,100.00
2018-11-28T04:31:15.385Z,100.00
2018-11-28T04:34:04.174Z,100.00
2018-11-28T04:36:53.323Z,100.00
2018-11-28T04:39:42.120Z,100.00
2018-11-28T04:42:30.880Z,100.00
2018-11-28T04:45:39.042Z,100.00
2018-11-28T04:48:27.825Z,100.00
2018-11-28T04:51:16.668Z,100.00
2018-11-28T04:54:05.377Z,100.00
2018-11-28T04:56:54.159Z,100.00
2018-11-28T04:59:42.932Z,100.00
2018-11-28T05:02:31.722Z,100.00
2018-11-28T05:05:20.490Z,100.00
2018-11-28T05:08:09.364Z,100.00
2018-11-28T05:10:58.053Z,100.00
2018-11-28T05:13:47.098Z,100.00
2018-11-28T05:16:35.892Z,100.00
2018-11-28T05:19:24.941Z,100.00
2018-11-28T05:22:13.729Z,100.00
2018-11-28T05:25:02.804Z,100.00
2018-11-28T05:27:52.456Z,100.00
2018-11-28T05:30:41.396Z,100.00
2018-11-28T05:33:30.182Z,100.00
2018-11-28T05:36:18.934Z,100.00
2018-11-28T05:39:08.068Z,100.00
2018-11-28T05:41:56.828Z,100.00
2018-11-28T05:44:45.908Z,100.00
2018-11-28T05:47:34.960Z,99.86
2018-11-28T05:50:23.770Z,99.84
2018-11-28T05:53:12.528Z,100.00
2018-11-28T05:56:01.306Z,99.58
2018-11-28T05:58:50.073Z,99.42
2018-11-28T06:01:38.860Z,99.77
2018-11-28T06:04:27.889Z,99.38
2018-11-28T06:07:16.824Z,99.33
2018-11-28T06:10:06.471Z,98.93
2018-11-28T06:12:55.760Z,98.77
2018-11-28T06:15:45.113Z,98.39
2018-11-28T06:18:33.876Z,98.87
2018-11-28T06:21:22.648Z,98.69
2018-11-28T06:24:11.409Z,98.59
2018-11-28T06:27:00.187Z,98.47
2018-11-28T06:29:48.941Z,98.39
2018-11-28T06:32:37.878Z,98.14
2018-11-28T06:35:26.640Z,98.53
2018-11-28T06:38:15.426Z,98.26
2018-11-28T06:41:04.206Z,98.18
2018-11-28T06:43:53.021Z,98.16
2018-11-28T06:46:42.111Z,98.55
2018-11-28T06:49:30.879Z,99.35
2018-11-28T06:52:19.931Z,99.56
2018-11-28T06:55:10.559Z,99.40
2018-11-28T06:57:59.785Z,99.20
2018-11-28T07:00:49.166Z,98.92
2018-11-28T07:03:38.124Z,98.74
2018-11-28T07:06:27.753Z,98.43
2018-11-28T07:09:16.674Z,98.98
2018-11-28T07:12:05.689Z,99.55
2018-11-28T07:14:54.994Z,100.00
2018-11-28T07:17:44.264Z,100.00
2018-11-28T07:20:33.540Z,100.00
2018-11-28T07:23:22.512Z,100.00
2018-11-28T07:26:11.450Z,100.00
2018-11-28T07:29:00.397Z,100.00
2018-11-28T07:31:49.369Z,100.00
2018-11-28T07:34:38.356Z,100.00
2018-11-28T07:37:27.276Z,100.00
2018-11-28T07:40:26.299Z,100.00
2018-11-28T07:43:15.404Z,100.00
2018-11-28T07:46:04.676Z,100.00
2018-11-28T07:48:53.719Z,100.00
2018-11-28T07:51:42.644Z,100.00
2018-11-28T07:54:31.629Z,100.00
2018-11-28T07:57:20.557Z,99.80
2018-11-28T08:00:15.921Z,98.83
2018-11-28T08:03:05.767Z,98.58
2018-11-28T08:05:55.089Z,98.13
2018-11-28T08:08:44.021Z,97.69
2018-11-28T08:11:32.892Z,98.74
2018-11-28T08:14:21.799Z,98.13
2018-11-28T08:17:10.574Z,97.61
2018-11-28T08:19:59.344Z,97.13
2018-11-28T08:22:48.127Z,95.66
2018-11-28T08:25:36.895Z,95.29
2018-11-28T08:28:25.699Z,95.29
2018-11-28T08:31:14.741Z,95.04
2018-11-28T08:34:03.507Z,94.67
2018-11-28T08:36:52.559Z,93.69
2018-11-28T08:39:41.353Z,94.40
2018-11-28T08:42:30.143Z,94.36
2018-11-28T08:45:19.842Z,94.04
2018-11-28T08:48:08.488Z,94.56
2018-11-28T08:50:57.282Z,94.77
2018-11-28T08:53:46.057Z,95.23
2018-11-28T08:56:34.839Z,95.33
2018-11-28T08:59:23.604Z,94.44
2018-11-28T09:02:12.703Z,94.56
2018-11-28T09:05:01.744Z,94.71
2018-11-28T09:07:50.794Z,95.36
2018-11-28T09:10:39.555Z,94.59
2018-11-28T09:13:28.346Z,93.78
2018-11-28T09:16:17.115Z,94.30
2018-11-28T09:19:05.900Z,94.04
2018-11-28T09:21:54.662Z,93.62
2018-11-28T09:24:43.435Z,93.17
2018-11-28T09:27:32.455Z,93.24
2018-11-28T09:30:21.288Z,93.23
2018-11-28T09:33:10.050Z,93.78
2018-11-28T09:35:59.158Z,93.29
2018-11-28T09:38:47.941Z,92.39
2018-11-28T09:41:37.004Z,91.91
2018-11-28T09:44:25.800Z,91.96
2018-11-28T09:47:14.557Z,90.16
2018-11-28T09:50:03.334Z,90.32
2018-11-28T09:52:52.124Z,90.74
2018-11-28T09:55:40.909Z,90.55
2018-11-28T09:58:29.666Z,90.44
2018-11-28T10:01:18.749Z,90.36
2018-11-28T10:04:07.582Z,91.24
2018-11-28T10:06:56.367Z,91.48
2018-11-28T10:09:45.414Z,92.02
2018-11-28T10:12:34.476Z,91.58
2018-11-28T10:15:46.246Z,90.46
2018-11-28T10:18:35.884Z,91.31
2018-11-28T10:21:23.793Z,91.47
2018-11-28T10:24:12.582Z,90.48
2018-11-28T10:27:01.339Z,91.14
2018-11-28T10:29:50.113Z,90.69
2018-11-28T10:32:39.234Z,90.52
2018-11-28T10:35:28.060Z,91.14
2018-11-28T10:38:17.096Z,90.78
2018-11-28T10:41:06.286Z,90.94
2018-11-28T10:43:55.089Z,90.05
2018-11-28T10:46:43.901Z,90.24
2018-11-28T10:49:32.957Z,90.24
2018-11-28T10:52:22.085Z,90.05
2018-11-28T10:55:30.228Z,91.15
2018-11-28T10:58:18.996Z,90.89
2018-11-28T11:01:26.839Z,90.42
2018-11-28T11:04:16.236Z,89.14
2018-11-28T11:07:23.970Z,88.26
2018-11-28T11:10:31.723Z,86.56
2018-11-28T11:13:39.474Z,86.18
2018-11-28T11:16:47.218Z,85.89
2018-11-28T11:19:36.009Z,85.93
2018-11-28T11:22:24.772Z,85.41
2018-11-28T11:25:13.888Z,85.12
2018-11-28T11:28:02.640Z,84.87
2018-11-28T11:30:51.435Z,83.76
2018-11-28T11:33:40.208Z,84.14
2018-11-28T11:36:29.016Z,84.28
2018-11-28T11:39:17.765Z,84.69
2018-11-28T11:42:06.693Z,83.87
2018-11-28T11:44:55.482Z,83.22
2018-11-28T11:47:44.289Z,84.10
2018-11-28T11:50:33.068Z,83.23
2018-11-28T11:53:21.876Z,83.20
2018-11-28T11:56:10.643Z,83.78
2018-11-28T11:58:59.421Z,83.11
2018-11-28T12:01:54.556Z,81.41
2018-11-28T12:04:37.246Z,81.70
2018-11-28T12:07:25.996Z,82.40
2018-11-28T12:10:14.970Z,82.39
2018-11-28T12:13:03.733Z,82.58
2018-11-28T12:15:52.520Z,82.77
2018-11-28T12:18:41.296Z,83.32
2018-11-28T12:21:30.110Z,82.72
2018-11-28T12:24:18.867Z,83.28
2018-11-28T12:27:07.647Z,82.75
2018-11-28T12:29:56.798Z,82.91
2018-11-28T12:32:45.554Z,83.24
2018-11-28T12:35:34.322Z,81.75
2018-11-28T12:38:23.085Z,82.71
2018-11-28T12:41:11.892Z,82.39
2018-11-28T12:44:00.651Z,84.01
2018-11-28T12:46:49.437Z,84.13
2018-11-28T12:49:38.205Z,83.77
2018-11-28T12:52:26.986Z,84.22
2018-11-28T12:55:15.899Z,84.53
2018-11-28T12:58:04.876Z,84.35
2018-11-28T13:00:53.640Z,83.70
2018-11-28T13:03:42.436Z,84.17
2018-11-28T13:06:31.552Z,84.49
2018-11-28T13:09:20.342Z,84.15
2018-11-28T13:12:09.091Z,83.85
2018-11-28T13:14:57.893Z,83.12
2018-11-28T13:17:46.681Z,82.73
2018-11-28T13:20:35.452Z,83.63
2018-11-28T13:23:24.209Z,84.98
2018-11-28T13:26:12.979Z,84.32
2018-11-28T13:29:01.754Z,85.21
2018-11-28T13:31:50.544Z,85.68
2018-11-28T13:34:39.332Z,86.16
2018-11-28T13:37:28.083Z,86.40
2018-11-28T13:40:17.878Z,86.37
2018-11-28T13:43:06.903Z,86.64
2018-11-28T13:45:55.971Z,86.89
2018-11-28T13:48:44.750Z,87.09
2018-11-28T13:51:33.775Z,87.05
2018-11-28T13:54:22.553Z,87.68
2018-11-28T13:57:11.874Z,88.15
2018-11-28T14:00:00.338Z,88.00
2018-11-28T14:02:49.139Z,88.40
2018-11-28T14:05:37.889Z,88.49
2018-11-28T14:08:26.684Z,88.36
2018-11-28T14:11:15.775Z,89.24
2018-11-28T14:14:04.561Z,89.27
2018-11-28T14:16:53.360Z,88.74
2018-11-28T14:19:42.123Z,88.35
2018-11-28T14:22:30.911Z,88.06
2018-11-28T14:25:19.931Z,88.70
2018-11-28T14:28:08.899Z,87.79
2018-11-28T14:30:57.671Z,86.92
2018-11-28T14:33:50.755Z,86.99
2018-11-28T14:36:35.228Z,87.18
2018-11-28T14:39:24.080Z,86.65
2018-11-28T14:42:13.121Z,87.07
2018-11-28T14:45:01.990Z,86.33
2018-11-28T14:47:51.202Z,87.38
2018-11-28T14:50:40.000Z,86.39
2018-11-28T14:53:28.781Z,86.65
2018-11-28T14:56:17.543Z,85.76
2018-11-28T14:59:06.692Z,86.52
2018-11-28T15:01:55.766Z,86.92
2018-11-28T15:04:44.848Z,86.57
2018-11-28T15:07:33.630Z,87.07
2018-11-28T15:10:44.063Z,86.87
2018-11-28T15:13:32.862Z,87.24
2018-11-28T15:16:21.668Z,87.21
2018-11-28T15:19:10.419Z,87.47
2018-11-28T15:21:59.217Z,87.22
2018-11-28T15:24:48.343Z,88.03
2018-11-28T15:27:37.426Z,88.61
2018-11-28T15:30:26.212Z,88.65
2018-11-28T15:33:14.982Z,88.54
2018-11-28T15:36:03.795Z,88.75
2018-11-28T15:38:52.523Z,89.24
2018-11-28T15:41:34.570Z,88.89
2018-11-28T15:44:23.336Z,88.92
2018-11-28T15:47:12.150Z,89.60
2018-11-28T15:50:00.921Z,89.40
2018-11-28T15:52:49.728Z,89.33
2018-11-28T15:55:38.491Z,89.52
2018-11-28T15:58:27.272Z,89.46
2018-11-28T16:01:16.051Z,89.60
2018-11-28T16:04:05.166Z,89.88
2018-11-28T16:06:53.932Z,89.31
2018-11-28T16:10:01.682Z,89.05
2018-11-28T16:12:50.700Z,89.57
2018-11-28T16:15:59.352Z,89.96
2018-11-28T16:18:48.105Z,90.09
2018-11-28T16:21:36.878Z,89.60
2018-11-28T16:24:25.657Z,90.13
2018-11-28T16:27:14.451Z,90.31
2018-11-28T16:30:03.237Z,90.71
2018-11-28T16:32:52.032Z,91.02
2018-11-28T16:35:40.843Z,91.10
2018-11-28T16:38:29.637Z,91.14
2018-11-28T16:41:18.407Z,91.21
2018-11-28T16:44:07.477Z,91.11
2018-11-28T16:46:56.261Z,91.68
2018-11-28T16:49:45.026Z,91.67
2018-11-28T16:52:33.819Z,91.30
2018-11-28T16:55:22.589Z,90.93
2018-11-28T16:58:11.695Z,91.32
2018-11-28T17:01:00.845Z,91.32
2018-11-28T17:03:49.962Z,91.85
2018-11-28T17:06:38.897Z,91.22
2018-11-28T17:09:27.858Z,91.55
2018-11-28T17:12:16.627Z,92.14
2018-11-28T17:15:06.373Z,92.06
2018-11-28T17:17:55.394Z,92.66
2018-11-28T17:20:44.388Z,92.03
2018-11-28T17:23:34.130Z,92.16
2018-11-28T17:26:22.651Z,92.50
2018-11-28T17:29:11.949Z,92.64
2018-11-28T17:32:00.882Z,92.89
2018-11-28T17:34:49.841Z,93.07
2018-11-28T17:37:38.735Z,94.00
2018-11-28T17:40:28.453Z,94.55
2018-11-28T17:43:17.342Z,93.88
2018-11-28T17:46:06.154Z,93.99
2018-11-28T17:48:55.062Z,94.04
2018-11-28T17:51:44.365Z,94.16
2018-11-28T17:54:33.379Z,94.17
2018-11-28T17:57:22.279Z,94.46
2018-11-28T18:00:30.595Z,94.15
2018-11-28T18:03:19.966Z,94.34
2018-11-28T18:06:09.248Z,94.32
2018-11-28T18:08:58.046Z,94.18
2018-11-28T18:11:46.812Z,94.08
2018-11-28T18:14:35.629Z,93.96
2018-11-28T18:17:24.399Z,94.12
2018-11-28T18:20:13.199Z,93.92
2018-11-28T18:23:02.015Z,94.10
2018-11-28T18:25:50.850Z,93.98
2018-11-28T18:28:39.981Z,93.91
2018-11-28T18:31:29.165Z,93.61
2018-11-28T18:34:10.835Z,93.35
2018-11-28T18:36:59.963Z,93.35
2018-11-28T18:39:48.774Z,93.41
2018-11-28T18:42:37.659Z,93.15
2018-11-28T18:45:27.788Z,92.75
2018-11-28T18:48:16.549Z,93.04
2018-11-28T18:51:05.340Z,93.21
2018-11-28T18:53:54.159Z,93.60
2018-11-28T18:56:43.433Z,93.78
2018-11-28T18:59:32.198Z,94.59
2018-11-28T19:02:21.074Z,94.13
2018-11-28T19:05:09.862Z,95.24
2018-11-28T19:07:58.745Z,95.23
2018-11-28T19:10:47.555Z,95.42
2018-11-28T19:13:36.361Z,95.03
2018-11-28T19:16:25.149Z,95.88
2018-11-28T19:19:13.949Z,95.54
2018-11-28T19:22:02.899Z,95.73
2018-11-28T19:24:51.790Z,95.99
2018-11-28T19:27:40.945Z,95.44
2018-11-28T19:30:49.770Z,94.99
2018-11-28T19:33:39.989Z,95.52
2018-11-28T19:36:29.987Z,97.38
2018-11-28T19:39:19.856Z,97.21
2018-11-28T19:45:19.135Z,99.85
2018-11-28T19:48:09.508Z,99.44
2018-11-28T19:50:59.903Z,99.50
2018-11-28T19:53:49.824Z,98.90
2018-11-28T19:56:40.054Z,99.90
2018-11-28T19:59:30.552Z,100.00
2018-11-28T20:02:20.948Z,100.00
2018-11-28T20:05:11.542Z,100.00
2018-11-28T20:08:01.856Z,100.00
2018-11-28T20:10:52.273Z,100.00
2018-11-28T20:13:42.681Z,100.00
2018-11-28T20:19:43.407Z,100.00
2018-11-28T20:22:33.945Z,100.00
2018-11-28T20:25:25.401Z,100.00
2018-11-28T20:28:15.939Z,100.00
2018-11-28T20:31:06.525Z,100.00
2018-11-28T20:33:57.021Z,100.00
2018-11-28T20:36:47.364Z,100.00
2018-11-28T20:39:37.850Z,100.00
2018-11-28T20:42:28.195Z,100.00
2018-11-28T20:45:18.756Z,100.00
2018-11-28T20:48:27.752Z,100.00
2018-11-28T20:51:18.178Z,100.00
2018-11-28T20:54:08.631Z,100.00
2018-11-28T20:56:59.083Z,100.00
2018-11-28T21:00:12.208Z,100.00
2018-11-28T21:03:02.773Z,100.00
2018-11-28T21:05:53.178Z,100.00
2018-11-28T21:08:43.689Z,100.00
2018-11-28T21:11:34.024Z,100.00
2018-11-28T21:14:24.395Z,100.00
2018-11-28T21:17:14.975Z,100.00
2018-11-28T21:20:05.441Z,100.00
2018-11-28T21:23:17.724Z,100.00
2018-11-28T21:26:07.284Z,100.00
2018-11-28T21:28:56.822Z,100.00
2018-11-28T21:31:46.260Z,100.00
2018-11-28T21:34:35.379Z,100.00
2018-11-28T21:37:24.479Z,100.00
2018-11-28T21:40:13.742Z,100.00
2018-11-28T21:43:03.080Z,100.00
2018-11-28T21:45:52.140Z,100.00
2018-11-28T21:48:40.986Z,100.00
2018-11-28T21:51:29.757Z,100.00
2018-11-28T21:54:18.560Z,100.00
2018-11-28T21:57:07.352Z,100.00
2018-11-28T21:59:36.756Z,100.00
2018-11-28T22:02:25.528Z,100.00
2018-11-28T22:05:14.951Z,100.00
2018-11-28T22:08:03.823Z,100.00
2018-11-28T22:10:52.620Z,100.00
2018-11-28T22:13:41.402Z,100.00
2018-11-28T22:16:30.199Z,100.00
2018-11-28T22:19:18.986Z,100.00
2018-11-28T22:22:07.764Z,100.00
2018-11-28T22:24:56.881Z,100.00
2018-11-28T22:27:45.656Z,100.00
2018-11-28T22:30:34.459Z,100.00
2018-11-28T22:33:23.248Z,100.00
2018-11-28T22:36:12.036Z,100.00
2018-11-28T22:39:00.838Z,100.00
2018-11-28T22:41:49.881Z,100.00
2018-11-28T22:44:38.669Z,100.00
2018-11-28T22:47:27.475Z,100.00
2018-11-28T22:50:16.236Z,100.00
2018-11-28T22:52:58.059Z,100.00
2018-11-28T22:55:47.528Z,100.00
2018-11-28T22:58:36.314Z,100.00
2018-11-28T23:01:57.040Z,100.00
2018-11-28T23:04:45.831Z,100.00
2018-11-28T23:07:34.647Z,100.00
2018-11-28T23:10:23.432Z,100.00
2018-11-28T23:13:16.104Z,100.00
2018-11-28T23:16:05.063Z,100.00
2018-11-28T23:18:54.034Z,100.00
2018-11-28T23:21:43.233Z,100.00
2018-11-28T23:24:32.220Z,100.00
2018-11-28T23:27:21.396Z,100.00
2018-11-28T23:30:32.947Z,100.00
2018-11-28T23:33:21.895Z,100.00
2018-11-28T23:36:11.307Z,100.00
2018-11-28T23:39:00.304Z,100.00
2018-11-28T23:41:49.295Z,100.00
2018-11-28T23:44:38.221Z,100.00
2018-11-28T23:47:28.471Z,100.00
2018-11-28T23:50:36.741Z,100.00
2018-11-28T23:53:26.048Z,100.00
2018-11-28T23:56:14.925Z,100.00
2018-11-28T23:59:04.497Z,100.00
